sensor_id;sensor_type;location;lat;lon;timestamp;P1;durP1;ratioP1;P2;durP2;ratioP2
20533;SDS011;12929;56.822;26.056;2022-09-09T00:00:47;1.60;;;0.57;;
20533;SDS011;12929;56.822;26.056;2022-09-09T00:03:24;2.95;;;0.80;;
20533;SDS011;12929;56.822;26.056;2022-09-09T00:06:25;1.33;;;0.70;;
20533;SDS011;12929;56.822;26.056;2022-09-09T00:09:16;1.80;;;0.60;;
20533;SDS011;12929;56.822;26.056;2022-09-09T00:11:52;1.55;;;0.70;;
20533;SDS011;12929;56.822;26.056;2022-09-09T00:14:28;3.97;;;0.80;;
20533;SDS011;12929;56.822;26.056;2022-09-09T00:17:09;2.70;;;0.90;;
20533;SDS011;12929;56.822;26.056;2022-09-09T00:20:05;0.95;;;0.60;;
20533;SDS011;12929;56.822;26.056;2022-09-09T00:22:51;1.85;;;0.70;;
20533;SDS011;12929;56.822;26.056;2022-09-09T00:28:19;3.08;;;0.75;;
20533;SDS011;12929;56.822;26.056;2022-09-09T00:30:49;1.60;;;0.70;;
20533;SDS011;12929;56.822;26.056;2022-09-09T00:33:18;1.90;;;0.77;;
20533;SDS011;12929;56.822;26.056;2022-09-09T00:35:51;2.05;;;0.70;;
20533;SDS011;12929;56.822;26.056;2022-09-09T00:38:25;2.22;;;0.70;;
20533;SDS011;12929;56.822;26.056;2022-09-09T00:43:41;1.38;;;0.65;;
20533;SDS011;12929;56.822;26.056;2022-09-09T00:57:35;1.50;;;0.70;;
20533;SDS011;12929;56.822;26.056;2022-09-09T01:11:24;2.10;;;0.68;;
20533;SDS011;12929;56.822;26.056;2022-09-09T01:16:44;3.23;;;0.60;;
20533;SDS011;12929;56.822;26.056;2022-09-09T01:19:18;1.83;;;0.87;;
20533;SDS011;12929;56.822;26.056;2022-09-09T01:28:03;2.05;;;0.60;;
20533;SDS011;12929;56.822;26.056;2022-09-09T01:30:38;1.48;;;0.60;;
20533;SDS011;12929;56.822;26.056;2022-09-09T01:33:14;1.90;;;0.68;;
20533;SDS011;12929;56.822;26.056;2022-09-09T01:38:50;1.53;;;0.87;;
20533;SDS011;12929;56.822;26.056;2022-09-09T01:41:18;1.35;;;0.70;;
20533;SDS011;12929;56.822;26.056;2022-09-09T01:44:03;2.95;;;1.08;;
20533;SDS011;12929;56.822;26.056;2022-09-09T01:46:33;1.03;;;0.70;;
20533;SDS011;12929;56.822;26.056;2022-09-09T01:49:03;2.33;;;0.70;;
20533;SDS011;12929;56.822;26.056;2022-09-09T01:51:35;1.58;;;0.80;;
20533;SDS011;12929;56.822;26.056;2022-09-09T01:54:07;2.20;;;0.70;;
20533;SDS011;12929;56.822;26.056;2022-09-09T01:56:39;2.97;;;0.68;;
20533;SDS011;12929;56.822;26.056;2022-09-09T02:02:26;1.98;;;0.90;;
20533;SDS011;12929;56.822;26.056;2022-09-09T02:08:30;1.48;;;0.70;;
20533;SDS011;12929;56.822;26.056;2022-09-09T02:11:11;2.75;;;0.93;;
20533;SDS011;12929;56.822;26.056;2022-09-09T02:13:47;2.67;;;0.70;;
20533;SDS011;12929;56.822;26.056;2022-09-09T02:16:23;1.58;;;0.80;;
20533;SDS011;12929;56.822;26.056;2022-09-09T02:18:56;1.63;;;0.75;;
20533;SDS011;12929;56.822;26.056;2022-09-09T02:21:43;3.07;;;0.70;;
20533;SDS011;12929;56.822;26.056;2022-09-09T02:24:16;2.42;;;0.82;;
20533;SDS011;12929;56.822;26.056;2022-09-09T02:26:51;2.03;;;0.80;;
20533;SDS011;12929;56.822;26.056;2022-09-09T02:29:23;2.60;;;0.80;;
20533;SDS011;12929;56.822;26.056;2022-09-09T02:31:56;1.45;;;0.70;;
20533;SDS011;12929;56.822;26.056;2022-09-09T02:34:33;1.30;;;0.70;;
20533;SDS011;12929;56.822;26.056;2022-09-09T02:37:07;1.97;;;0.80;;
20533;SDS011;12929;56.822;26.056;2022-09-09T02:39:38;3.00;;;0.80;;
20533;SDS011;12929;56.822;26.056;2022-09-09T02:42:10;1.08;;;0.70;;
20533;SDS011;12929;56.822;26.056;2022-09-09T02:44:38;2.03;;;0.80;;
20533;SDS011;12929;56.822;26.056;2022-09-09T02:47:10;1.33;;;0.80;;
20533;SDS011;12929;56.822;26.056;2022-09-09T02:52:20;1.80;;;0.70;;
20533;SDS011;12929;56.822;26.056;2022-09-09T02:55:05;2.03;;;0.80;;
20533;SDS011;12929;56.822;26.056;2022-09-09T02:57:39;1.58;;;0.82;;
20533;SDS011;12929;56.822;26.056;2022-09-09T03:00:09;1.10;;;0.70;;
20533;SDS011;12929;56.822;26.056;2022-09-09T03:02:38;1.27;;;0.70;;
20533;SDS011;12929;56.822;26.056;2022-09-09T03:05:06;1.80;;;0.80;;
20533;SDS011;12929;56.822;26.056;2022-09-09T03:07:35;2.40;;;0.95;;
20533;SDS011;12929;56.822;26.056;2022-09-09T03:10:03;2.33;;;0.80;;
20533;SDS011;12929;56.822;26.056;2022-09-09T03:12:32;2.67;;;1.20;;
20533;SDS011;12929;56.822;26.056;2022-09-09T03:15:00;1.50;;;0.90;;
20533;SDS011;12929;56.822;26.056;2022-09-09T03:17:28;2.20;;;0.80;;
20533;SDS011;12929;56.822;26.056;2022-09-09T03:19:57;3.25;;;0.80;;
20533;SDS011;12929;56.822;26.056;2022-09-09T03:22:26;2.17;;;0.90;;
20533;SDS011;12929;56.822;26.056;2022-09-09T03:24:56;3.80;;;0.98;;
20533;SDS011;12929;56.822;26.056;2022-09-09T03:27:24;2.27;;;0.70;;
20533;SDS011;12929;56.822;26.056;2022-09-09T03:29:52;1.33;;;0.77;;
20533;SDS011;12929;56.822;26.056;2022-09-09T03:32:23;2.60;;;0.70;;
20533;SDS011;12929;56.822;26.056;2022-09-09T03:34:55;1.80;;;0.80;;
20533;SDS011;12929;56.822;26.056;2022-09-09T03:37:24;2.80;;;0.90;;
20533;SDS011;12929;56.822;26.056;2022-09-09T03:39:52;1.98;;;1.00;;
20533;SDS011;12929;56.822;26.056;2022-09-09T03:42:22;1.40;;;0.70;;
20533;SDS011;12929;56.822;26.056;2022-09-09T03:44:53;3.03;;;0.80;;
20533;SDS011;12929;56.822;26.056;2022-09-09T03:47:23;1.52;;;0.82;;
20533;SDS011;12929;56.822;26.056;2022-09-09T03:49:57;1.75;;;0.82;;
20533;SDS011;12929;56.822;26.056;2022-09-09T03:52:28;1.35;;;0.73;;
20533;SDS011;12929;56.822;26.056;2022-09-09T03:54:56;1.77;;;0.90;;
20533;SDS011;12929;56.822;26.056;2022-09-09T03:57:25;2.40;;;0.80;;
20533;SDS011;12929;56.822;26.056;2022-09-09T03:59:53;2.60;;;1.00;;
20533;SDS011;12929;56.822;26.056;2022-09-09T04:02:22;2.78;;;0.80;;
20533;SDS011;12929;56.822;26.056;2022-09-09T04:04:54;1.25;;;0.80;;
20533;SDS011;12929;56.822;26.056;2022-09-09T04:07:23;2.17;;;0.83;;
20533;SDS011;12929;56.822;26.056;2022-09-09T04:09:52;2.47;;;1.00;;
20533;SDS011;12929;56.822;26.056;2022-09-09T04:12:21;1.77;;;0.80;;
20533;SDS011;12929;56.822;26.056;2022-09-09T04:14:50;1.42;;;0.77;;
20533;SDS011;12929;56.822;26.056;2022-09-09T04:17:20;1.60;;;0.87;;
20533;SDS011;12929;56.822;26.056;2022-09-09T04:19:50;3.47;;;0.90;;
20533;SDS011;12929;56.822;26.056;2022-09-09T04:22:18;2.60;;;0.90;;
20533;SDS011;12929;56.822;26.056;2022-09-09T04:24:46;2.58;;;1.20;;
20533;SDS011;12929;56.822;26.056;2022-09-09T04:27:17;2.47;;;0.90;;
20533;SDS011;12929;56.822;26.056;2022-09-09T04:29:49;1.23;;;1.00;;
20533;SDS011;12929;56.822;26.056;2022-09-09T04:32:17;1.80;;;0.90;;
20533;SDS011;12929;56.822;26.056;2022-09-09T04:34:46;3.05;;;1.00;;
20533;SDS011;12929;56.822;26.056;2022-09-09T04:37:15;1.30;;;0.80;;
20533;SDS011;12929;56.822;26.056;2022-09-09T04:39:46;1.58;;;0.93;;
20533;SDS011;12929;56.822;26.056;2022-09-09T04:42:15;2.40;;;1.10;;
20533;SDS011;12929;56.822;26.056;2022-09-09T04:44:45;3.23;;;1.07;;
20533;SDS011;12929;56.822;26.056;2022-09-09T04:47:14;1.80;;;1.00;;
20533;SDS011;12929;56.822;26.056;2022-09-09T04:49:42;2.70;;;0.97;;
20533;SDS011;12929;56.822;26.056;2022-09-09T04:52:10;2.20;;;1.10;;
20533;SDS011;12929;56.822;26.056;2022-09-09T04:54:38;1.73;;;0.90;;
20533;SDS011;12929;56.822;26.056;2022-09-09T04:57:07;2.28;;;1.08;;
20533;SDS011;12929;56.822;26.056;2022-09-09T04:59:44;4.55;;;1.30;;
20533;SDS011;12929;56.822;26.056;2022-09-09T05:02:13;2.70;;;1.57;;
20533;SDS011;12929;56.822;26.056;2022-09-09T05:04:41;3.03;;;1.30;;
20533;SDS011;12929;56.822;26.056;2022-09-09T05:07:13;2.70;;;1.30;;
20533;SDS011;12929;56.822;26.056;2022-09-09T05:09:41;3.53;;;1.80;;
20533;SDS011;12929;56.822;26.056;2022-09-09T05:12:10;3.42;;;1.30;;
20533;SDS011;12929;56.822;26.056;2022-09-09T05:14:45;1.47;;;1.10;;
20533;SDS011;12929;56.822;26.056;2022-09-09T05:17:13;2.10;;;1.40;;
20533;SDS011;12929;56.822;26.056;2022-09-09T05:19:42;2.80;;;1.48;;
20533;SDS011;12929;56.822;26.056;2022-09-09T05:22:10;3.00;;;1.70;;
20533;SDS011;12929;56.822;26.056;2022-09-09T05:24:43;3.45;;;1.60;;
20533;SDS011;12929;56.822;26.056;2022-09-09T05:27:11;3.20;;;1.65;;
20533;SDS011;12929;56.822;26.056;2022-09-09T05:29:40;3.72;;;1.90;;
20533;SDS011;12929;56.822;26.056;2022-09-09T05:32:10;4.50;;;1.60;;
20533;SDS011;12929;56.822;26.056;2022-09-09T05:34:43;3.40;;;1.50;;
20533;SDS011;12929;56.822;26.056;2022-09-09T05:37:11;2.65;;;1.77;;
20533;SDS011;12929;56.822;26.056;2022-09-09T05:39:39;4.57;;;1.67;;
20533;SDS011;12929;56.822;26.056;2022-09-09T05:42:07;3.58;;;1.50;;
20533;SDS011;12929;56.822;26.056;2022-09-09T05:44:35;3.10;;;1.55;;
20533;SDS011;12929;56.822;26.056;2022-09-09T05:47:04;2.90;;;1.55;;
20533;SDS011;12929;56.822;26.056;2022-09-09T05:49:33;2.85;;;1.42;;
20533;SDS011;12929;56.822;26.056;2022-09-09T05:52:01;2.80;;;1.60;;
20533;SDS011;12929;56.822;26.056;2022-09-09T05:54:30;3.20;;;1.60;;
20533;SDS011;12929;56.822;26.056;2022-09-09T05:57:00;2.38;;;1.30;;
20533;SDS011;12929;56.822;26.056;2022-09-09T05:59:28;2.70;;;1.38;;
20533;SDS011;12929;56.822;26.056;2022-09-09T06:01:56;3.22;;;1.70;;
20533;SDS011;12929;56.822;26.056;2022-09-09T06:04:31;3.85;;;1.60;;
20533;SDS011;12929;56.822;26.056;2022-09-09T06:07:00;2.40;;;1.45;;
20533;SDS011;12929;56.822;26.056;2022-09-09T06:09:28;3.50;;;1.90;;
20533;SDS011;12929;56.822;26.056;2022-09-09T06:11:57;3.90;;;1.70;;
20533;SDS011;12929;56.822;26.056;2022-09-09T06:14:25;3.73;;;1.80;;
20533;SDS011;12929;56.822;26.056;2022-09-09T06:16:57;2.72;;;1.52;;
20533;SDS011;12929;56.822;26.056;2022-09-09T06:19:28;3.10;;;1.45;;
20533;SDS011;12929;56.822;26.056;2022-09-09T06:21:58;2.28;;;1.50;;
20533;SDS011;12929;56.822;26.056;2022-09-09T06:24:29;3.42;;;1.63;;
20533;SDS011;12929;56.822;26.056;2022-09-09T06:26:59;2.80;;;1.30;;
20533;SDS011;12929;56.822;26.056;2022-09-09T06:29:31;2.58;;;1.45;;
20533;SDS011;12929;56.822;26.056;2022-09-09T06:32:00;2.05;;;1.42;;
20533;SDS011;12929;56.822;26.056;2022-09-09T06:34:29;3.17;;;1.48;;
20533;SDS011;12929;56.822;26.056;2022-09-09T06:36:58;3.30;;;1.60;;
20533;SDS011;12929;56.822;26.056;2022-09-09T06:39:34;2.47;;;1.30;;
20533;SDS011;12929;56.822;26.056;2022-09-09T06:42:02;2.80;;;1.60;;
20533;SDS011;12929;56.822;26.056;2022-09-09T06:44:50;2.92;;;1.38;;
20533;SDS011;12929;56.822;26.056;2022-09-09T06:47:30;2.72;;;1.48;;
20533;SDS011;12929;56.822;26.056;2022-09-09T06:50:00;2.70;;;1.58;;
20533;SDS011;12929;56.822;26.056;2022-09-09T06:52:31;2.10;;;1.40;;
20533;SDS011;12929;56.822;26.056;2022-09-09T06:55:00;2.90;;;1.38;;
20533;SDS011;12929;56.822;26.056;2022-09-09T06:57:28;3.30;;;1.60;;
20533;SDS011;12929;56.822;26.056;2022-09-09T07:00:07;3.17;;;1.58;;
20533;SDS011;12929;56.822;26.056;2022-09-09T07:02:36;3.30;;;1.67;;
20533;SDS011;12929;56.822;26.056;2022-09-09T07:05:07;4.47;;;2.13;;
20533;SDS011;12929;56.822;26.056;2022-09-09T07:07:36;6.65;;;2.20;;
20533;SDS011;12929;56.822;26.056;2022-09-09T07:10:05;3.90;;;2.00;;
20533;SDS011;12929;56.822;26.056;2022-09-09T07:12:35;2.95;;;1.50;;
20533;SDS011;12929;56.822;26.056;2022-09-09T07:15:08;1.80;;;1.20;;
20533;SDS011;12929;56.822;26.056;2022-09-09T07:17:39;3.05;;;1.52;;
20533;SDS011;12929;56.822;26.056;2022-09-09T07:20:07;2.28;;;1.20;;
20533;SDS011;12929;56.822;26.056;2022-09-09T07:22:35;1.90;;;1.10;;
20533;SDS011;12929;56.822;26.056;2022-09-09T07:25:03;2.08;;;1.23;;
20533;SDS011;12929;56.822;26.056;2022-09-09T07:27:31;2.53;;;1.40;;
20533;SDS011;12929;56.822;26.056;2022-09-09T07:29:59;4.10;;;1.40;;
20533;SDS011;12929;56.822;26.056;2022-09-09T07:32:26;2.50;;;1.30;;
20533;SDS011;12929;56.822;26.056;2022-09-09T07:34:54;2.67;;;1.20;;
20533;SDS011;12929;56.822;26.056;2022-09-09T07:37:23;2.33;;;1.00;;
20533;SDS011;12929;56.822;26.056;2022-09-09T07:39:52;1.70;;;1.20;;
20533;SDS011;12929;56.822;26.056;2022-09-09T07:42:20;3.35;;;1.60;;
20533;SDS011;12929;56.822;26.056;2022-09-09T07:44:48;1.40;;;1.10;;
20533;SDS011;12929;56.822;26.056;2022-09-09T07:47:16;3.30;;;1.40;;
20533;SDS011;12929;56.822;26.056;2022-09-09T07:49:46;2.83;;;1.23;;
20533;SDS011;12929;56.822;26.056;2022-09-09T07:52:22;2.63;;;1.02;;
20533;SDS011;12929;56.822;26.056;2022-09-09T07:54:55;2.40;;;1.10;;
20533;SDS011;12929;56.822;26.056;2022-09-09T07:57:23;2.77;;;1.20;;
20533;SDS011;12929;56.822;26.056;2022-09-09T07:59:53;2.55;;;1.23;;
20533;SDS011;12929;56.822;26.056;2022-09-09T08:02:21;3.85;;;1.20;;
20533;SDS011;12929;56.822;26.056;2022-09-09T08:04:50;3.10;;;1.10;;
20533;SDS011;12929;56.822;26.056;2022-09-09T08:07:19;2.70;;;1.30;;
20533;SDS011;12929;56.822;26.056;2022-09-09T08:09:52;2.42;;;1.08;;
20533;SDS011;12929;56.822;26.056;2022-09-09T08:12:28;2.88;;;1.08;;
20533;SDS011;12929;56.822;26.056;2022-09-09T08:14:56;2.90;;;1.00;;
20533;SDS011;12929;56.822;26.056;2022-09-09T08:17:28;2.72;;;0.80;;
20533;SDS011;12929;56.822;26.056;2022-09-09T08:19:58;2.58;;;0.80;;
20533;SDS011;12929;56.822;26.056;2022-09-09T08:22:33;2.00;;;0.90;;
20533;SDS011;12929;56.822;26.056;2022-09-09T08:25:01;1.85;;;0.75;;
20533;SDS011;12929;56.822;26.056;2022-09-09T08:27:31;1.13;;;0.70;;
20533;SDS011;12929;56.822;26.056;2022-09-09T08:29:59;3.23;;;0.80;;
20533;SDS011;12929;56.822;26.056;2022-09-09T08:32:29;1.23;;;0.88;;
20533;SDS011;12929;56.822;26.056;2022-09-09T08:34:57;34.90;;;2.80;;
20533;SDS011;12929;56.822;26.056;2022-09-09T08:37:28;2.78;;;0.70;;
20533;SDS011;12929;56.822;26.056;2022-09-09T08:39:56;2.53;;;0.95;;
20533;SDS011;12929;56.822;26.056;2022-09-09T08:48:15;2.27;;;0.70;;
20533;SDS011;12929;56.822;26.056;2022-09-09T08:50:52;2.00;;;0.63;;
20533;SDS011;12929;56.822;26.056;2022-09-09T08:53:27;1.40;;;0.75;;
20533;SDS011;12929;56.822;26.056;2022-09-09T08:56:04;2.03;;;0.60;;
20533;SDS011;12929;56.822;26.056;2022-09-09T08:58:49;1.25;;;0.60;;
20533;SDS011;12929;56.822;26.056;2022-09-09T09:01:30;1.58;;;0.60;;
20533;SDS011;12929;56.822;26.056;2022-09-09T09:13:02;2.93;;;0.60;;
20533;SDS011;12929;56.822;26.056;2022-09-09T09:15:33;1.88;;;0.70;;
20533;SDS011;12929;56.822;26.056;2022-09-09T09:18:07;1.40;;;0.60;;
20533;SDS011;12929;56.822;26.056;2022-09-09T09:21:25;2.00;;;0.65;;
20533;SDS011;12929;56.822;26.056;2022-09-09T09:23:51;1.05;;;0.50;;
20533;SDS011;12929;56.822;26.056;2022-09-09T09:26:30;2.27;;;0.50;;
20533;SDS011;12929;56.822;26.056;2022-09-09T09:29:12;1.38;;;0.60;;
20533;SDS011;12929;56.822;26.056;2022-09-09T09:31:53;1.38;;;0.60;;
20533;SDS011;12929;56.822;26.056;2022-09-09T09:34:24;3.40;;;0.60;;
20533;SDS011;12929;56.822;26.056;2022-09-09T09:36:58;2.15;;;0.70;;
20533;SDS011;12929;56.822;26.056;2022-09-09T09:39:33;2.03;;;0.60;;
20533;SDS011;12929;56.822;26.056;2022-09-09T09:42:27;2.70;;;0.70;;
20533;SDS011;12929;56.822;26.056;2022-09-09T09:44:56;2.15;;;0.80;;
20533;SDS011;12929;56.822;26.056;2022-09-09T09:47:35;1.00;;;0.50;;
20533;SDS011;12929;56.822;26.056;2022-09-09T09:50:18;1.35;;;0.57;;
20533;SDS011;12929;56.822;26.056;2022-09-09T09:52:54;2.13;;;0.77;;
20533;SDS011;12929;56.822;26.056;2022-09-09T09:55:44;1.90;;;0.60;;
20533;SDS011;12929;56.822;26.056;2022-09-09T09:58:20;1.58;;;0.68;;
20533;SDS011;12929;56.822;26.056;2022-09-09T10:00:51;2.28;;;0.63;;
20533;SDS011;12929;56.822;26.056;2022-09-09T10:03:29;1.33;;;0.60;;
20533;SDS011;12929;56.822;26.056;2022-09-09T10:06:00;1.20;;;0.60;;
20533;SDS011;12929;56.822;26.056;2022-09-09T10:08:28;1.67;;;0.50;;
20533;SDS011;12929;56.822;26.056;2022-09-09T10:13:36;1.40;;;0.50;;
20533;SDS011;12929;56.822;26.056;2022-09-09T10:16:22;1.75;;;0.60;;
20533;SDS011;12929;56.822;26.056;2022-09-09T10:19:03;2.07;;;0.60;;
20533;SDS011;12929;56.822;26.056;2022-09-09T10:24:26;0.98;;;0.60;;
20533;SDS011;12929;56.822;26.056;2022-09-09T10:56:11;4.13;;;0.65;;
20533;SDS011;12929;56.822;26.056;2022-09-09T10:58:39;2.80;;;0.50;;
20533;SDS011;12929;56.822;26.056;2022-09-09T11:01:48;4.05;;;0.60;;
20533;SDS011;12929;56.822;26.056;2022-09-09T11:04:25;1.83;;;0.53;;
20533;SDS011;12929;56.822;26.056;2022-09-09T11:07:00;3.47;;;0.60;;
20533;SDS011;12929;56.822;26.056;2022-09-09T11:09:41;4.15;;;0.63;;
20533;SDS011;12929;56.822;26.056;2022-09-09T11:12:17;3.50;;;0.50;;
20533;SDS011;12929;56.822;26.056;2022-09-09T11:14:48;1.30;;;0.50;;
20533;SDS011;12929;56.822;26.056;2022-09-09T11:17:33;1.75;;;0.43;;
20533;SDS011;12929;56.822;26.056;2022-09-09T11:20:13;1.95;;;0.40;;
20533;SDS011;12929;56.822;26.056;2022-09-09T11:22:44;2.33;;;0.50;;
20533;SDS011;12929;56.822;26.056;2022-09-09T11:25:25;2.20;;;0.60;;
20533;SDS011;12929;56.822;26.056;2022-09-09T11:31:13;1.35;;;0.50;;
20533;SDS011;12929;56.822;26.056;2022-09-09T11:38:57;0.80;;;0.52;;
20533;SDS011;12929;56.822;26.056;2022-09-09T11:44:54;2.50;;;0.60;;
20533;SDS011;12929;56.822;26.056;2022-09-09T11:47:27;1.63;;;0.45;;
20533;SDS011;12929;56.822;26.056;2022-09-09T11:52:45;2.25;;;0.60;;
20533;SDS011;12929;56.822;26.056;2022-09-09T11:58:03;2.15;;;0.50;;
20533;SDS011;12929;56.822;26.056;2022-09-09T12:00:40;1.50;;;0.50;;
20533;SDS011;12929;56.822;26.056;2022-09-09T12:06:19;1.60;;;0.50;;
20533;SDS011;12929;56.822;26.056;2022-09-09T12:08:50;0.63;;;0.45;;
20533;SDS011;12929;56.822;26.056;2022-09-09T12:11:25;1.50;;;0.50;;
20533;SDS011;12929;56.822;26.056;2022-09-09T12:13:55;2.63;;;0.50;;
20533;SDS011;12929;56.822;26.056;2022-09-09T12:16:29;1.10;;;0.57;;
20533;SDS011;12929;56.822;26.056;2022-09-09T12:19:14;2.55;;;0.40;;
20533;SDS011;12929;56.822;26.056;2022-09-09T12:21:57;1.42;;;0.40;;
20533;SDS011;12929;56.822;26.056;2022-09-09T12:24:35;2.05;;;0.50;;
20533;SDS011;12929;56.822;26.056;2022-09-09T12:27:15;2.25;;;0.50;;
20533;SDS011;12929;56.822;26.056;2022-09-09T12:32:35;1.80;;;0.40;;
20533;SDS011;12929;56.822;26.056;2022-09-09T12:35:12;2.13;;;0.40;;
20533;SDS011;12929;56.822;26.056;2022-09-09T12:37:50;1.55;;;0.40;;
20533;SDS011;12929;56.822;26.056;2022-09-09T12:40:25;0.80;;;0.47;;
20533;SDS011;12929;56.822;26.056;2022-09-09T12:42:54;2.78;;;0.47;;
20533;SDS011;12929;56.822;26.056;2022-09-09T12:45:23;3.08;;;0.50;;
20533;SDS011;12929;56.822;26.056;2022-09-09T12:50:29;2.03;;;0.50;;
20533;SDS011;12929;56.822;26.056;2022-09-09T12:53:01;1.35;;;0.40;;
20533;SDS011;12929;56.822;26.056;2022-09-09T12:55:38;3.15;;;0.60;;
20533;SDS011;12929;56.822;26.056;2022-09-09T12:58:06;1.90;;;0.50;;
20533;SDS011;12929;56.822;26.056;2022-09-09T13:00:34;2.17;;;0.60;;
20533;SDS011;12929;56.822;26.056;2022-09-09T13:03:13;1.13;;;0.40;;
20533;SDS011;12929;56.822;26.056;2022-09-09T13:05:43;2.83;;;0.55;;
20533;SDS011;12929;56.822;26.056;2022-09-09T13:08:16;2.63;;;0.57;;
20533;SDS011;12929;56.822;26.056;2022-09-09T13:10:54;2.35;;;0.60;;
20533;SDS011;12929;56.822;26.056;2022-09-09T13:13:40;0.80;;;0.50;;
20533;SDS011;12929;56.822;26.056;2022-09-09T13:16:19;2.20;;;0.55;;
20533;SDS011;12929;56.822;26.056;2022-09-09T13:18:50;8.95;;;0.98;;
20533;SDS011;12929;56.822;26.056;2022-09-09T13:21:19;3.15;;;0.50;;
20533;SDS011;12929;56.822;26.056;2022-09-09T13:23:57;1.60;;;0.40;;
20533;SDS011;12929;56.822;26.056;2022-09-09T13:26:30;4.68;;;0.50;;
20533;SDS011;12929;56.822;26.056;2022-09-09T13:29:09;3.27;;;0.40;;
20533;SDS011;12929;56.822;26.056;2022-09-09T13:31:46;1.23;;;0.40;;
20533;SDS011;12929;56.822;26.056;2022-09-09T13:34:28;1.25;;;0.50;;
20533;SDS011;12929;56.822;26.056;2022-09-09T13:37:00;3.20;;;0.50;;
20533;SDS011;12929;56.822;26.056;2022-09-09T13:39:35;1.45;;;0.50;;
20533;SDS011;12929;56.822;26.056;2022-09-09T13:42:04;2.80;;;0.50;;
20533;SDS011;12929;56.822;26.056;2022-09-09T13:44:34;2.22;;;0.43;;
20533;SDS011;12929;56.822;26.056;2022-09-09T13:49:36;1.40;;;0.40;;
20533;SDS011;12929;56.822;26.056;2022-09-09T13:52:05;1.77;;;0.50;;
20533;SDS011;12929;56.822;26.056;2022-09-09T13:54:39;0.80;;;0.47;;
20533;SDS011;12929;56.822;26.056;2022-09-09T13:57:15;1.60;;;0.50;;
20533;SDS011;12929;56.822;26.056;2022-09-09T13:59:46;3.45;;;0.60;;
20533;SDS011;12929;56.822;26.056;2022-09-09T14:02:31;1.15;;;0.40;;
20533;SDS011;12929;56.822;26.056;2022-09-09T14:05:00;1.80;;;0.50;;
20533;SDS011;12929;56.822;26.056;2022-09-09T14:07:28;1.50;;;0.50;;
20533;SDS011;12929;56.822;26.056;2022-09-09T14:09:55;6.55;;;0.95;;
20533;SDS011;12929;56.822;26.056;2022-09-09T14:12:23;4.25;;;1.00;;
20533;SDS011;12929;56.822;26.056;2022-09-09T14:14:51;8.30;;;1.13;;
20533;SDS011;12929;56.822;26.056;2022-09-09T14:17:19;3.20;;;0.70;;
20533;SDS011;12929;56.822;26.056;2022-09-09T14:19:46;5.13;;;0.80;;
20533;SDS011;12929;56.822;26.056;2022-09-09T14:22:14;4.32;;;0.98;;
20533;SDS011;12929;56.822;26.056;2022-09-09T14:24:42;5.28;;;0.82;;
20533;SDS011;12929;56.822;26.056;2022-09-09T14:27:10;2.47;;;0.98;;
20533;SDS011;12929;56.822;26.056;2022-09-09T14:29:38;2.72;;;0.90;;
20533;SDS011;12929;56.822;26.056;2022-09-09T14:32:05;3.23;;;0.83;;
20533;SDS011;12929;56.822;26.056;2022-09-09T14:34:38;3.40;;;0.90;;
20533;SDS011;12929;56.822;26.056;2022-09-09T14:37:06;3.42;;;1.10;;
20533;SDS011;12929;56.822;26.056;2022-09-09T14:39:33;4.40;;;0.80;;
20533;SDS011;12929;56.822;26.056;2022-09-09T14:42:01;1.50;;;0.60;;
20533;SDS011;12929;56.822;26.056;2022-09-09T14:44:29;4.68;;;0.80;;
20533;SDS011;12929;56.822;26.056;2022-09-09T14:46:57;4.50;;;0.70;;
20533;SDS011;12929;56.822;26.056;2022-09-09T14:49:25;6.45;;;0.60;;
20533;SDS011;12929;56.822;26.056;2022-09-09T14:51:53;3.50;;;0.70;;
20533;SDS011;12929;56.822;26.056;2022-09-09T14:54:20;1.75;;;0.57;;
20533;SDS011;12929;56.822;26.056;2022-09-09T14:56:49;4.25;;;0.60;;
20533;SDS011;12929;56.822;26.056;2022-09-09T14:59:17;3.97;;;0.70;;
20533;SDS011;12929;56.822;26.056;2022-09-09T15:01:45;2.80;;;0.60;;
20533;SDS011;12929;56.822;26.056;2022-09-09T15:04:13;3.10;;;0.60;;
20533;SDS011;12929;56.822;26.056;2022-09-09T15:06:47;2.60;;;0.60;;
20533;SDS011;12929;56.822;26.056;2022-09-09T15:09:16;3.90;;;0.70;;
20533;SDS011;12929;56.822;26.056;2022-09-09T15:11:44;4.70;;;0.73;;
20533;SDS011;12929;56.822;26.056;2022-09-09T15:14:12;8.23;;;1.00;;
20533;SDS011;12929;56.822;26.056;2022-09-09T15:16:39;6.85;;;0.90;;
20533;SDS011;12929;56.822;26.056;2022-09-09T15:19:08;6.38;;;0.60;;
20533;SDS011;12929;56.822;26.056;2022-09-09T15:21:36;3.83;;;0.60;;
20533;SDS011;12929;56.822;26.056;2022-09-09T15:24:05;2.73;;;0.50;;
20533;SDS011;12929;56.822;26.056;2022-09-09T15:26:35;5.20;;;0.73;;
20533;SDS011;12929;56.822;26.056;2022-09-09T15:29:05;4.32;;;0.60;;
20533;SDS011;12929;56.822;26.056;2022-09-09T15:31:35;2.90;;;0.63;;
20533;SDS011;12929;56.822;26.056;2022-09-09T15:34:04;5.00;;;0.70;;
20533;SDS011;12929;56.822;26.056;2022-09-09T15:36:34;6.50;;;0.63;;
20533;SDS011;12929;56.822;26.056;2022-09-09T15:39:03;5.45;;;0.70;;
20533;SDS011;12929;56.822;26.056;2022-09-09T15:41:33;2.40;;;0.60;;
20533;SDS011;12929;56.822;26.056;2022-09-09T15:44:01;5.57;;;0.80;;
20533;SDS011;12929;56.822;26.056;2022-09-09T15:46:33;4.07;;;0.77;;
20533;SDS011;12929;56.822;26.056;2022-09-09T15:51:41;2.42;;;0.88;;
20533;SDS011;12929;56.822;26.056;2022-09-09T15:54:11;2.55;;;0.80;;
20533;SDS011;12929;56.822;26.056;2022-09-09T15:56:42;5.65;;;2.10;;
20533;SDS011;12929;56.822;26.056;2022-09-09T15:59:09;3.63;;;0.80;;
20533;SDS011;12929;56.822;26.056;2022-09-09T16:01:38;6.25;;;1.08;;
20533;SDS011;12929;56.822;26.056;2022-09-09T16:04:10;3.10;;;0.70;;
20533;SDS011;12929;56.822;26.056;2022-09-09T16:06:37;4.90;;;0.98;;
20533;SDS011;12929;56.822;26.056;2022-09-09T16:09:06;4.67;;;1.00;;
20533;SDS011;12929;56.822;26.056;2022-09-09T16:11:35;4.25;;;0.90;;
20533;SDS011;12929;56.822;26.056;2022-09-09T16:14:04;7.93;;;2.55;;
20533;SDS011;12929;56.822;26.056;2022-09-09T16:16:33;5.95;;;0.93;;
20533;SDS011;12929;56.822;26.056;2022-09-09T16:19:06;4.10;;;0.83;;
20533;SDS011;12929;56.822;26.056;2022-09-09T16:21:37;3.25;;;0.73;;
20533;SDS011;12929;56.822;26.056;2022-09-09T16:24:09;3.30;;;0.80;;
20533;SDS011;12929;56.822;26.056;2022-09-09T16:26:40;3.20;;;0.80;;
20533;SDS011;12929;56.822;26.056;2022-09-09T16:29:13;3.72;;;0.90;;
20533;SDS011;12929;56.822;26.056;2022-09-09T16:31:42;1.70;;;0.70;;
20533;SDS011;12929;56.822;26.056;2022-09-09T16:34:10;3.67;;;0.60;;
20533;SDS011;12929;56.822;26.056;2022-09-09T16:36:39;1.58;;;0.60;;
20533;SDS011;12929;56.822;26.056;2022-09-09T16:39:09;3.25;;;0.80;;
20533;SDS011;12929;56.822;26.056;2022-09-09T16:41:42;2.28;;;0.60;;
20533;SDS011;12929;56.822;26.056;2022-09-09T16:44:12;2.20;;;0.70;;
20533;SDS011;12929;56.822;26.056;2022-09-09T16:46:42;2.97;;;0.85;;
20533;SDS011;12929;56.822;26.056;2022-09-09T16:49:14;3.53;;;0.80;;
20533;SDS011;12929;56.822;26.056;2022-09-09T16:51:49;3.35;;;0.80;;
20533;SDS011;12929;56.822;26.056;2022-09-09T16:54:20;2.65;;;0.70;;
20533;SDS011;12929;56.822;26.056;2022-09-09T16:56:50;3.90;;;0.80;;
20533;SDS011;12929;56.822;26.056;2022-09-09T16:59:18;1.92;;;0.60;;
20533;SDS011;12929;56.822;26.056;2022-09-09T17:01:48;2.13;;;0.70;;
20533;SDS011;12929;56.822;26.056;2022-09-09T17:04:18;1.75;;;0.80;;
20533;SDS011;12929;56.822;26.056;2022-09-09T17:06:48;1.92;;;0.70;;
20533;SDS011;12929;56.822;26.056;2022-09-09T17:09:18;1.90;;;0.70;;
20533;SDS011;12929;56.822;26.056;2022-09-09T17:11:47;2.47;;;0.80;;